sensor_id;sensor_type;location;lat;lon;timestamp;P1;durP1;ratioP1;P2;durP2;ratioP2
1677;SDS011;6034;46.864;15.216;2024-03-23T06:40:46;17.50;;;5.10;;
1677;SDS011;6034;46.864;15.216;2024-03-23T06:43:16;4.13;;;2.40;;
1677;SDS011;6034;46.864;15.216;2024-03-23T06:45:42;2.95;;;2.42;;
1677;SDS011;6034;46.864;15.216;2024-03-23T06:48:11;3.83;;;2.50;;
1677;SDS011;6034;46.864;15.216;2024-03-23T06:50:37;7.50;;;3.15;;
1677;SDS011;6034;46.864;15.216;2024-03-23T06:53:05;3.70;;;2.58;;
1677;SDS011;6034;46.864;15.216;2024-03-23T06:55:31;4.65;;;2.75;;
1677;SDS011;6034;46.864;15.216;2024-03-23T06:58:00;3.38;;;2.75;;
1677;SDS011;6034;46.864;15.216;2024-03-23T07:00:26;2.53;;;2.30;;
1677;SDS011;6034;46.864;15.216;2024-03-23T07:02:54;3.47;;;2.85;;
1677;SDS011;6034;46.864;15.216;2024-03-23T07:05:20;8.00;;;3.53;;
1677;SDS011;6034;46.864;15.216;2024-03-23T07:07:47;3.25;;;2.15;;
1677;SDS011;6034;46.864;15.216;2024-03-23T07:10:14;3.33;;;2.30;;
1677;SDS011;6034;46.864;15.216;2024-03-23T07:12:41;3.45;;;2.20;;
1677;SDS011;6034;46.864;15.216;2024-03-23T07:15:11;2.80;;;2.30;;
1677;SDS011;6034;46.864;15.216;2024-03-23T07:17:46;3.58;;;2.15;;
1677;SDS011;6034;46.864;15.216;2024-03-23T07:20:17;4.35;;;2.70;;
1677;SDS011;6034;46.864;15.216;2024-03-23T07:22:45;5.75;;;2.42;;
1677;SDS011;6034;46.864;15.216;2024-03-23T07:25:14;3.53;;;2.50;;
1677;SDS011;6034;46.864;15.216;2024-03-23T07:27:42;4.05;;;3.00;;
1677;SDS011;6034;46.864;15.216;2024-03-23T07:30:10;2.72;;;2.00;;
1677;SDS011;6034;46.864;15.216;2024-03-23T07:32:38;6.18;;;3.30;;
1677;SDS011;6034;46.864;15.216;2024-03-23T07:35:04;3.53;;;2.70;;
1677;SDS011;6034;46.864;15.216;2024-03-23T07:37:34;4.80;;;3.63;;
1677;SDS011;6034;46.864;15.216;2024-03-23T07:40:00;5.15;;;3.92;;
1677;SDS011;6034;46.864;15.216;2024-03-23T07:42:28;5.38;;;3.15;;
1677;SDS011;6034;46.864;15.216;2024-03-23T07:44:55;4.68;;;2.85;;
1677;SDS011;6034;46.864;15.216;2024-03-23T07:47:27;6.22;;;3.25;;
1677;SDS011;6034;46.864;15.216;2024-03-23T07:49:53;6.90;;;3.00;;
1677;SDS011;6034;46.864;15.216;2024-03-23T07:52:20;9.07;;;3.30;;
1677;SDS011;6034;46.864;15.216;2024-03-23T07:54:47;3.60;;;3.28;;
1677;SDS011;6034;46.864;15.216;2024-03-23T07:57:14;4.20;;;3.65;;
1677;SDS011;6034;46.864;15.216;2024-03-23T07:59:41;7.30;;;5.68;;
1677;SDS011;6034;46.864;15.216;2024-03-23T08:02:12;14.20;;;10.15;;
1677;SDS011;6034;46.864;15.216;2024-03-23T08:04:40;5.63;;;4.68;;
1677;SDS011;6034;46.864;15.216;2024-03-23T08:07:07;3.85;;;3.13;;
1677;SDS011;6034;46.864;15.216;2024-03-23T08:09:33;3.60;;;2.88;;
1677;SDS011;6034;46.864;15.216;2024-03-23T08:12:01;4.75;;;3.00;;
1677;SDS011;6034;46.864;15.216;2024-03-23T08:14:27;3.35;;;3.00;;
1677;SDS011;6034;46.864;15.216;2024-03-23T08:16:55;3.35;;;3.03;;
1677;SDS011;6034;46.864;15.216;2024-03-23T08:19:22;5.18;;;4.05;;
1677;SDS011;6034;46.864;15.216;2024-03-23T08:21:51;3.72;;;3.10;;
1677;SDS011;6034;46.864;15.216;2024-03-23T08:24:19;4.05;;;3.25;;
1677;SDS011;6034;46.864;15.216;2024-03-23T08:26:47;4.97;;;3.20;;
1677;SDS011;6034;46.864;15.216;2024-03-23T08:29:13;4.20;;;3.10;;
1677;SDS011;6034;46.864;15.216;2024-03-23T08:31:40;5.43;;;3.78;;
1677;SDS011;6034;46.864;15.216;2024-03-23T08:34:07;5.40;;;3.72;;
1677;SDS011;6034;46.864;15.216;2024-03-23T08:36:34;5.55;;;4.30;;
1677;SDS011;6034;46.864;15.216;2024-03-23T08:39:02;6.28;;;4.35;;
1677;SDS011;6034;46.864;15.216;2024-03-23T08:41:29;4.68;;;3.80;;
1677;SDS011;6034;46.864;15.216;2024-03-23T08:43:55;5.35;;;4.07;;
1677;SDS011;6034;46.864;15.216;2024-03-23T08:46:23;4.47;;;3.65;;
1677;SDS011;6034;46.864;15.216;2024-03-23T08:48:49;5.57;;;4.57;;
1677;SDS011;6034;46.864;15.216;2024-03-23T08:51:18;4.32;;;3.80;;
1677;SDS011;6034;46.864;15.216;2024-03-23T08:53:44;5.30;;;3.65;;
1677;SDS011;6034;46.864;15.216;2024-03-23T08:56:14;4.93;;;3.35;;
1677;SDS011;6034;46.864;15.216;2024-03-23T08:58:41;5.13;;;3.60;;
1677;SDS011;6034;46.864;15.216;2024-03-23T09:01:09;6.20;;;3.60;;
1677;SDS011;6034;46.864;15.216;2024-03-23T09:03:38;4.20;;;3.60;;
1677;SDS011;6034;46.864;15.216;2024-03-23T09:06:06;6.20;;;3.63;;
1677;SDS011;6034;46.864;15.216;2024-03-23T09:08:33;5.45;;;3.80;;
1677;SDS011;6034;46.864;15.216;2024-03-23T09:11:03;5.10;;;3.47;;
1677;SDS011;6034;46.864;15.216;2024-03-23T09:13:33;5.30;;;4.00;;
1677;SDS011;6034;46.864;15.216;2024-03-23T09:16:00;5.22;;;4.47;;
1677;SDS011;6034;46.864;15.216;2024-03-23T09:18:27;6.70;;;5.40;;
1677;SDS011;6034;46.864;15.216;2024-03-23T09:20:54;7.45;;;4.90;;
1677;SDS011;6034;46.864;15.216;2024-03-23T09:23:20;5.55;;;3.65;;
1677;SDS011;6034;46.864;15.216;2024-03-23T09:25:48;6.93;;;3.75;;
1677;SDS011;6034;46.864;15.216;2024-03-23T09:28:14;4.07;;;3.45;;
1677;SDS011;6034;46.864;15.216;2024-03-23T09:30:43;6.43;;;4.13;;
1677;SDS011;6034;46.864;15.216;2024-03-23T09:33:09;12.23;;;3.90;;
1677;SDS011;6034;46.864;15.216;2024-03-23T09:35:37;7.53;;;4.68;;
1677;SDS011;6034;46.864;15.216;2024-03-23T09:38:04;9.52;;;4.05;;
1677;SDS011;6034;46.864;15.216;2024-03-23T09:40:32;6.65;;;3.40;;
1677;SDS011;6034;46.864;15.216;2024-03-23T09:42:59;4.88;;;3.53;;
1677;SDS011;6034;46.864;15.216;2024-03-23T09:45:27;3.90;;;3.50;;
1677;SDS011;6034;46.864;15.216;2024-03-23T09:47:55;6.00;;;3.58;;
1677;SDS011;6034;46.864;15.216;2024-03-23T09:50:23;6.07;;;4.25;;
1677;SDS011;6034;46.864;15.216;2024-03-23T09:52:49;4.38;;;3.70;;
1677;SDS011;6034;46.864;15.216;2024-03-23T09:55:17;4.93;;;3.33;;
1677;SDS011;6034;46.864;15.216;2024-03-23T09:57:43;5.93;;;3.22;;
1677;SDS011;6034;46.864;15.216;2024-03-23T10:00:11;4.97;;;3.40;;
1677;SDS011;6034;46.864;15.216;2024-03-23T10:02:38;4.47;;;3.10;;
1677;SDS011;6034;46.864;15.216;2024-03-23T10:05:13;3.10;;;2.58;;
1677;SDS011;6034;46.864;15.216;2024-03-23T10:07:47;8.20;;;4.35;;
1677;SDS011;6034;46.864;15.216;2024-03-23T10:10:15;12.43;;;4.57;;
1677;SDS011;6034;46.864;15.216;2024-03-23T10:12:43;5.70;;;2.90;;
1677;SDS011;6034;46.864;15.216;2024-03-23T10:15:15;9.05;;;3.28;;
1677;SDS011;6034;46.864;15.216;2024-03-23T10:17:45;3.97;;;3.25;;
1677;SDS011;6034;46.864;15.216;2024-03-23T10:20:14;7.53;;;3.47;;
1677;SDS011;6034;46.864;15.216;2024-03-23T10:22:45;4.50;;;3.40;;
1677;SDS011;6034;46.864;15.216;2024-03-23T10:25:13;4.50;;;3.80;;
1677;SDS011;6034;46.864;15.216;2024-03-23T10:27:39;7.70;;;4.03;;
1677;SDS011;6034;46.864;15.216;2024-03-23T10:30:09;4.18;;;3.78;;
1677;SDS011;6034;46.864;15.216;2024-03-23T10:32:36;3.97;;;2.92;;
1677;SDS011;6034;46.864;15.216;2024-03-23T10:35:15;3.88;;;3.40;;
1677;SDS011;6034;46.864;15.216;2024-03-23T10:37:44;6.60;;;3.63;;
1677;SDS011;6034;46.864;15.216;2024-03-23T10:40:12;6.07;;;4.00;;
1677;SDS011;6034;46.864;15.216;2024-03-23T10:42:40;5.30;;;4.30;;
1677;SDS011;6034;46.864;15.216;2024-03-23T10:45:06;4.22;;;3.85;;
1677;SDS011;6034;46.864;15.216;2024-03-23T10:47:35;5.53;;;4.63;;
1677;SDS011;6034;46.864;15.216;2024-03-23T10:50:02;6.65;;;4.10;;
1677;SDS011;6034;46.864;15.216;2024-03-23T10:52:32;5.73;;;3.80;;
1677;SDS011;6034;46.864;15.216;2024-03-23T10:54:59;4.80;;;3.90;;
1677;SDS011;6034;46.864;15.216;2024-03-23T10:57:32;4.70;;;4.20;;
1677;SDS011;6034;46.864;15.216;2024-03-23T11:00:04;5.73;;;3.57;;
1677;SDS011;6034;46.864;15.216;2024-03-23T11:02:32;5.90;;;4.30;;
1677;SDS011;6034;46.864;15.216;2024-03-23T11:04:59;7.75;;;4.30;;
1677;SDS011;6034;46.864;15.216;2024-03-23T11:07:30;4.20;;;3.80;;
1677;SDS011;6034;46.864;15.216;2024-03-23T11:09:58;4.97;;;3.50;;
1677;SDS011;6034;46.864;15.216;2024-03-23T11:12:30;5.60;;;3.30;;
1677;SDS011;6034;46.864;15.216;2024-03-23T11:15:01;4.07;;;3.60;;
1677;SDS011;6034;46.864;15.216;2024-03-23T11:17:30;6.30;;;5.10;;
1677;SDS011;6034;46.864;15.216;2024-03-23T11:19:57;4.50;;;4.10;;
1677;SDS011;6034;46.864;15.216;2024-03-23T11:22:45;4.60;;;3.70;;
1677;SDS011;6034;46.864;15.216;2024-03-23T11:25:16;4.57;;;4.17;;
1677;SDS011;6034;46.864;15.216;2024-03-23T11:27:45;6.47;;;4.70;;
1677;SDS011;6034;46.864;15.216;2024-03-23T11:30:14;5.07;;;3.93;;
1677;SDS011;6034;46.864;15.216;2024-03-23T11:32:43;4.30;;;3.90;;
1677;SDS011;6034;46.864;15.216;2024-03-23T11:35:10;6.43;;;4.20;;
1677;SDS011;6034;46.864;15.216;2024-03-23T11:38:03;5.73;;;3.87;;
1677;SDS011;6034;46.864;15.216;2024-03-23T11:40:33;5.07;;;4.57;;
1677;SDS011;6034;46.864;15.216;2024-03-23T11:43:01;4.50;;;3.37;;
1677;SDS011;6034;46.864;15.216;2024-03-23T11:45:29;5.83;;;4.20;;
1677;SDS011;6034;46.864;15.216;2024-03-23T11:48:05;4.20;;;3.73;;
1677;SDS011;6034;46.864;15.216;2024-03-23T11:50:33;4.90;;;3.50;;
1677;SDS011;6034;46.864;15.216;2024-03-23T11:53:18;6.67;;;4.07;;
1677;SDS011;6034;46.864;15.216;2024-03-23T11:55:46;4.20;;;3.67;;
1677;SDS011;6034;46.864;15.216;2024-03-23T11:58:15;4.20;;;3.30;;
1677;SDS011;6034;46.864;15.216;2024-03-23T12:00:42;4.37;;;2.90;;
1677;SDS011;6034;46.864;15.216;2024-03-23T12:03:16;3.73;;;3.17;;
1677;SDS011;6034;46.864;15.216;2024-03-23T12:05:46;3.43;;;2.90;;
1677;SDS011;6034;46.864;15.216;2024-03-23T12:08:17;3.63;;;3.10;;
1677;SDS011;6034;46.864;15.216;2024-03-23T12:10:46;4.33;;;3.00;;
1677;SDS011;6034;46.864;15.216;2024-03-23T12:13:16;3.50;;;3.20;;
1677;SDS011;6034;46.864;15.216;2024-03-23T12:15:43;3.67;;;3.37;;
1677;SDS011;6034;46.864;15.216;2024-03-23T12:18:11;4.00;;;3.07;;
1677;SDS011;6034;46.864;15.216;2024-03-23T12:20:38;3.70;;;2.43;;
1677;SDS011;6034;46.864;15.216;2024-03-23T12:23:09;2.97;;;2.63;;
1677;SDS011;6034;46.864;15.216;2024-03-23T12:25:38;4.40;;;2.70;;
1677;SDS011;6034;46.864;15.216;2024-03-23T12:28:06;4.50;;;3.60;;
1677;SDS011;6034;46.864;15.216;2024-03-23T12:30:33;4.20;;;3.10;;
1677;SDS011;6034;46.864;15.216;2024-03-23T12:33:02;6.17;;;3.37;;
1677;SDS011;6034;46.864;15.216;2024-03-23T12:35:28;3.70;;;2.90;;
1677;SDS011;6034;46.864;15.216;2024-03-23T12:37:56;4.03;;;3.20;;
1677;SDS011;6034;46.864;15.216;2024-03-23T12:40:22;4.60;;;3.73;;
1677;SDS011;6034;46.864;15.216;2024-03-23T12:42:52;4.60;;;3.83;;
1677;SDS011;6034;46.864;15.216;2024-03-23T12:45:18;3.63;;;2.80;;
1677;SDS011;6034;46.864;15.216;2024-03-23T12:47:45;4.80;;;4.00;;
1677;SDS011;6034;46.864;15.216;2024-03-23T12:50:12;6.20;;;3.60;;
1677;SDS011;6034;46.864;15.216;2024-03-23T12:52:39;3.50;;;2.70;;
1677;SDS011;6034;46.864;15.216;2024-03-23T12:55:06;4.80;;;3.90;;
1677;SDS011;6034;46.864;15.216;2024-03-23T12:57:34;6.43;;;4.47;;
1677;SDS011;6034;46.864;15.216;2024-03-23T13:00:02;6.33;;;4.27;;
1677;SDS011;6034;46.864;15.216;2024-03-23T13:02:30;6.03;;;4.23;;
1677;SDS011;6034;46.864;15.216;2024-03-23T13:04:56;5.50;;;4.07;;
1677;SDS011;6034;46.864;15.216;2024-03-23T13:07:23;7.40;;;5.30;;
1677;SDS011;6034;46.864;15.216;2024-03-23T13:09:50;5.43;;;4.10;;
1677;SDS011;6034;46.864;15.216;2024-03-23T13:12:18;5.10;;;4.07;;
1677;SDS011;6034;46.864;15.216;2024-03-23T13:14:45;5.43;;;3.90;;
1677;SDS011;6034;46.864;15.216;2024-03-23T13:17:15;6.07;;;3.63;;
1677;SDS011;6034;46.864;15.216;2024-03-23T13:19:41;5.60;;;4.83;;
1677;SDS011;6034;46.864;15.216;2024-03-23T13:22:08;5.23;;;3.70;;
1677;SDS011;6034;46.864;15.216;2024-03-23T13:24:37;8.07;;;6.70;;
1677;SDS011;6034;46.864;15.216;2024-03-23T13:27:04;8.03;;;5.17;;
1677;SDS011;6034;46.864;15.216;2024-03-23T13:29:33;5.03;;;3.83;;
1677;SDS011;6034;46.864;15.216;2024-03-23T13:32:01;5.07;;;3.40;;
1677;SDS011;6034;46.864;15.216;2024-03-23T13:34:28;5.67;;;4.37;;
1677;SDS011;6034;46.864;15.216;2024-03-23T13:36:56;5.73;;;3.73;;
1677;SDS011;6034;46.864;15.216;2024-03-23T13:39:23;4.63;;;3.77;;
1677;SDS011;6034;46.864;15.216;2024-03-23T13:41:53;7.87;;;4.87;;
1677;SDS011;6034;46.864;15.216;2024-03-23T13:44:20;5.07;;;4.07;;
1677;SDS011;6034;46.864;15.216;2024-03-23T13:46:47;5.80;;;4.03;;
1677;SDS011;6034;46.864;15.216;2024-03-23T13:49:20;4.30;;;3.90;;
1677;SDS011;6034;46.864;15.216;2024-03-23T13:51:54;5.97;;;4.27;;
1677;SDS011;6034;46.864;15.216;2024-03-23T13:54:22;7.90;;;4.30;;
1677;SDS011;6034;46.864;15.216;2024-03-23T13:56:51;5.77;;;4.17;;
1677;SDS011;6034;46.864;15.216;2024-03-23T13:59:18;6.20;;;5.40;;
1677;SDS011;6034;46.864;15.216;2024-03-23T14:01:46;5.40;;;4.00;;
1677;SDS011;6034;46.864;15.216;2024-03-23T14:04:13;5.93;;;3.87;;
1677;SDS011;6034;46.864;15.216;2024-03-23T14:06:42;5.13;;;3.40;;
1677;SDS011;6034;46.864;15.216;2024-03-23T14:09:11;5.00;;;4.23;;
1677;SDS011;6034;46.864;15.216;2024-03-23T14:11:39;5.27;;;3.93;;
1677;SDS011;6034;46.864;15.216;2024-03-23T14:14:06;4.70;;;3.80;;
1677;SDS011;6034;46.864;15.216;2024-03-23T14:16:34;4.23;;;3.67;;
1677;SDS011;6034;46.864;15.216;2024-03-23T14:19:00;6.47;;;4.20;;
1677;SDS011;6034;46.864;15.216;2024-03-23T14:21:30;4.87;;;4.10;;
1677;SDS011;6034;46.864;15.216;2024-03-23T14:23:56;5.30;;;4.00;;
1677;SDS011;6034;46.864;15.216;2024-03-23T14:26:25;4.90;;;3.50;;
1677;SDS011;6034;46.864;15.216;2024-03-23T14:28:52;4.73;;;4.20;;
1677;SDS011;6034;46.864;15.216;2024-03-23T14:31:19;5.20;;;4.10;;
1677;SDS011;6034;46.864;15.216;2024-03-23T14:33:45;4.73;;;3.47;;
1677;SDS011;6034;46.864;15.216;2024-03-23T14:36:14;4.63;;;4.10;;
1677;SDS011;6034;46.864;15.216;2024-03-23T14:38:40;5.17;;;4.67;;
1677;SDS011;6034;46.864;15.216;2024-03-23T14:41:07;5.07;;;3.87;;
1677;SDS011;6034;46.864;15.216;2024-03-23T14:43:35;3.93;;;3.50;;
1677;SDS011;6034;46.864;15.216;2024-03-23T14:46:06;6.27;;;4.20;;
1677;SDS011;6034;46.864;15.216;2024-03-23T14:48:33;4.73;;;3.60;;
1677;SDS011;6034;46.864;15.216;2024-03-23T14:51:01;9.53;;;4.50;;
1677;SDS011;6034;46.864;15.216;2024-03-23T14:53:30;3.40;;;3.10;;
1677;SDS011;6034;46.864;15.216;2024-03-23T14:55:59;4.77;;;3.77;;
1677;SDS011;6034;46.864;15.216;2024-03-23T14:58:26;5.37;;;3.80;;
1677;SDS011;6034;46.864;15.216;2024-03-23T15:01:00;5.70;;;4.07;;
1677;SDS011;6034;46.864;15.216;2024-03-23T15:03:27;6.00;;;3.70;;
1677;SDS011;6034;46.864;15.216;2024-03-23T15:05:54;4.70;;;4.20;;
1677;SDS011;6034;46.864;15.216;2024-03-23T15:08:22;4.83;;;4.17;;
1677;SDS011;6034;46.864;15.216;2024-03-23T15:10:49;4.60;;;3.73;;
1677;SDS011;6034;46.864;15.216;2024-03-23T15:13:16;4.20;;;3.80;;
1677;SDS011;6034;46.864;15.216;2024-03-23T15:15:44;4.30;;;3.90;;
1677;SDS011;6034;46.864;15.216;2024-03-23T15:18:12;4.93;;;4.03;;
1677;SDS011;6034;46.864;15.216;2024-03-23T15:20:40;5.40;;;4.13;;
1677;SDS011;6034;46.864;15.216;2024-03-23T15:23:06;7.10;;;4.63;;
1677;SDS011;6034;46.864;15.216;2024-03-23T15:25:34;4.57;;;3.73;;
1677;SDS011;6034;46.864;15.216;2024-03-23T15:28:00;5.53;;;4.40;;
1677;SDS011;6034;46.864;15.216;2024-03-23T15:30:28;5.27;;;4.07;;
1677;SDS011;6034;46.864;15.216;2024-03-23T15:32:54;6.20;;;4.37;;
1677;SDS011;6034;46.864;15.216;2024-03-23T15:35:23;4.80;;;4.03;;
1677;SDS011;6034;46.864;15.216;2024-03-23T15:37:50;6.17;;;4.23;;
1677;SDS011;6034;46.864;15.216;2024-03-23T15:40:18;5.00;;;4.50;;
1677;SDS011;6034;46.864;15.216;2024-03-23T15:42:44;4.17;;;3.77;;
1677;SDS011;6034;46.864;15.216;2024-03-23T15:45:11;6.73;;;3.37;;
1677;SDS011;6034;46.864;15.216;2024-03-23T15:47:38;5.97;;;3.83;;
1677;SDS011;6034;46.864;15.216;2024-03-23T15:50:05;4.50;;;4.00;;
1677;SDS011;6034;46.864;15.216;2024-03-23T15:52:36;4.00;;;3.60;;
1677;SDS011;6034;46.864;15.216;2024-03-23T15:55:03;4.80;;;3.50;;
1677;SDS011;6034;46.864;15.216;2024-03-23T15:57:32;4.20;;;3.60;;
1677;SDS011;6034;46.864;15.216;2024-03-23T16:00:00;3.70;;;3.30;;
1677;SDS011;6034;46.864;15.216;2024-03-23T16:02:27;4.37;;;3.40;;
1677;SDS011;6034;46.864;15.216;2024-03-23T16:04:55;3.10;;;1.27;;
1677;SDS011;6034;46.864;15.216;2024-03-23T16:07:23;2.00;;;1.07;;
1677;SDS011;6034;46.864;15.216;2024-03-23T16:09:52;1.90;;;0.80;;
1677;SDS011;6034;46.864;15.216;2024-03-23T16:12:18;1.33;;;0.80;;
1677;SDS011;6034;46.864;15.216;2024-03-23T16:14:46;1.35;;;0.90;;
1677;SDS011;6034;46.864;15.216;2024-03-23T16:17:12;1.90;;;0.82;;
1677;SDS011;6034;46.864;15.216;2024-03-23T16:19:39;2.25;;;0.80;;
1677;SDS011;6034;46.864;15.216;2024-03-23T16:22:06;2.13;;;0.70;;
1677;SDS011;6034;46.864;15.216;2024-03-23T16:24:33;1.20;;;0.60;;
1677;SDS011;6034;46.864;15.216;2024-03-23T16:27:01;2.28;;;0.90;;
1677;SDS011;6034;46.864;15.216;2024-03-23T16:29:29;1.30;;;0.68;;
1677;SDS011;6034;46.864;15.216;2024-03-23T16:31:55;1.70;;;0.70;;
1677;SDS011;6034;46.864;15.216;2024-03-23T16:34:23;1.02;;;0.38;;
1677;SDS011;6034;46.864;15.216;2024-03-23T16:36:49;1.58;;;0.40;;
1677;SDS011;6034;46.864;15.216;2024-03-23T16:39:17;1.10;;;0.47;;
1677;SDS011;6034;46.864;15.216;2024-03-23T16:41:44;1.00;;;0.30;;
1677;SDS011;6034;46.864;15.216;2024-03-23T16:44:13;1.02;;;0.30;;
1677;SDS011;6034;46.864;15.216;2024-03-23T16:46:39;1.05;;;0.40;;
1677;SDS011;6034;46.864;15.216;2024-03-23T16:49:08;0.90;;;0.30;;
1677;SDS011;6034;46.864;15.216;2024-03-23T16:51:35;1.20;;;0.50;;
1677;SDS011;6034;46.864;15.216;2024-03-23T16:54:02;1.00;;;0.40;;
1677;SDS011;6034;46.864;15.216;2024-03-23T16:56:29;1.60;;;0.70;;
1677;SDS011;6034;46.864;15.216;2024-03-23T16:58:57;0.90;;;0.30;;
1677;SDS011;6034;46.864;15.216;2024-03-23T17:01:24;0.90;;;0.35;;
1677;SDS011;6034;46.864;15.216;2024-03-23T17:03:53;1.35;;;0.30;;
1677;SDS011;6034;46.864;15.216;2024-03-23T17:06:19;1.58;;;0.40;;
1677;SDS011;6034;46.864;15.216;2024-03-23T17:08:48;3.22;;;0.60;;
1677;SDS011;6034;46.864;15.216;2024-03-23T17:11:15;1.10;;;0.77;;
1677;SDS011;6034;46.864;15.216;2024-03-23T17:13:43;0.80;;;0.30;;
1677;SDS011;6034;46.864;15.216;2024-03-23T17:16:10;0.90;;;0.30;;
1677;SDS011;6034;46.864;15.216;2024-03-23T17:18:40;1.08;;;0.30;;
1677;SDS011;6034;46.864;15.216;2024-03-23T17:21:06;1.00;;;0.40;;
1677;SDS011;6034;46.864;15.216;2024-03-23T17:23:34;1.70;;;0.30;;
1677;SDS011;6034;46.864;15.216;2024-03-23T17:26:01;1.10;;;0.35;;
1677;SDS011;6034;46.864;15.216;2024-03-23T17:28:28;0.90;;;0.30;;
1677;SDS011;6034;46.864;15.216;2024-03-23T17:30:54;1.00;;;0.38;;
1677;SDS011;6034;46.864;15.216;2024-03-23T17:33:22;1.00;;;0.35;;
1677;SDS011;6034;46.864;15.216;2024-03-23T17:35:51;1.58;;;0.43;;
1677;SDS011;6034;46.864;15.216;2024-03-23T17:38:17;1.63;;;0.70;;
1677;SDS011;6034;46.864;15.216;2024-03-23T17:40:45;2.20;;;0.70;;
1677;SDS011;6034;46.864;15.216;2024-03-23T17:43:12;1.10;;;0.30;;
1677;SDS011;6034;46.864;15.216;2024-03-23T17:45:40;1.17;;;0.40;;
1677;SDS011;6034;46.864;15.216;2024-03-23T17:48:07;1.10;;;0.40;;
1677;SDS011;6034;46.864;15.216;2024-03-23T17:50:34;6.65;;;1.35;;
1677;SDS011;6034;46.864;15.216;2024-03-23T17:53:02;1.00;;;0.40;;
1677;SDS011;6034;46.864;15.216;2024-03-23T17:55:30;1.67;;;1.30;;
1677;SDS011;6034;46.864;15.216;2024-03-23T17:57:56;1.10;;;0.57;;
1677;SDS011;6034;46.864;15.216;2024-03-23T18:00:26;1.23;;;0.50;;
1677;SDS011;6034;46.864;15.216;2024-03-23T18:02:52;3.25;;;0.98;;
1677;SDS011;6034;46.864;15.216;2024-03-23T18:05:20;1.92;;;0.80;;
1677;SDS011;6034;46.864;15.216;2024-03-23T18:07:47;1.33;;;0.65;;
1677;SDS011;6034;46.864;15.216;2024-03-23T18:10:16;2.22;;;0.80;;
1677;SDS011;6034;46.864;15.216;2024-03-23T18:12:42;2.25;;;1.00;;
1677;SDS011;6034;46.864;15.216;2024-03-23T18:15:13;2.17;;;1.20;;
1677;SDS011;6034;46.864;15.216;2024-03-23T18:17:39;4.32;;;2.17;;
1677;SDS011;6034;46.864;15.216;2024-03-23T18:20:07;2.80;;;1.50;;
1677;SDS011;6034;46.864;15.216;2024-03-23T18:22:34;1.50;;;0.75;;
1677;SDS011;6034;46.864;15.216;2024-03-23T18:25:02;1.70;;;1.20;;
1677;SDS011;6034;46.864;15.216;2024-03-23T18:27:32;1.20;;;0.80;;
1677;SDS011;6034;46.864;15.216;2024-03-23T18:29:59;3.22;;;2.35;;
1677;SDS011;6034;46.864;15.216;2024-03-23T18:32:26;1.73;;;1.05;;
1677;SDS011;6034;46.864;15.216;2024-03-23T18:34:53;1.40;;;1.00;;
1677;SDS011;6034;46.864;15.216;2024-03-23T18:37:20;1.98;;;1.10;;
1677;SDS011;6034;46.864;15.216;2024-03-23T18:39:47;2.47;;;1.48;;
1677;SDS011;6034;46.864;15.216;2024-03-23T18:42:14;1.65;;;0.90;;
1677;SDS011;6034;46.864;15.216;2024-03-23T18:44:43;1.70;;;1.52;;
1677;SDS011;6034;46.864;15.216;2024-03-23T18:47:09;1.20;;;0.80;;
1677;SDS011;6034;46.864;15.216;2024-03-23T18:49:37;1.10;;;0.50;;
1677;SDS011;6034;46.864;15.216;2024-03-23T18:52:04;3.17;;;0.82;;
1677;SDS011;6034;46.864;15.216;2024-03-23T18:54:32;1.50;;;0.52;;
1677;SDS011;6034;46.864;15.216;2024-03-23T18:56:58;3.05;;;0.65;;
1677;SDS011;6034;46.864;15.216;2024-03-23T18:59:26;2.35;;;2.15;;
1677;SDS011;6034;46.864;15.216;2024-03-23T19:01:54;2.42;;;1.08;;
1677;SDS011;6034;46.864;15.216;2024-03-23T19:04:21;1.27;;;0.65;;
1677;SDS011;6034;46.864;15.216;2024-03-23T19:06:48;1.30;;;0.60;;
1677;SDS011;6034;46.864;15.216;2024-03-23T19:09:15;2.35;;;0.80;;
1677;SDS011;6034;46.864;15.216;2024-03-23T19:11:42;1.25;;;0.60;;
1677;SDS011;6034;46.864;15.216;2024-03-23T19:14:09;0.90;;;0.40;;
1677;SDS011;6034;46.864;15.216;2024-03-23T19:16:36;1.25;;;1.00;;
1677;SDS011;6034;46.864;15.216;2024-03-23T19:19:05;1.58;;;0.90;;
1677;SDS011;6034;46.864;15.216;2024-03-23T19:21:31;1.80;;;0.90;;
1677;SDS011;6034;46.864;15.216;2024-03-23T19:23:59;1.88;;;0.90;;
1677;SDS011;6034;46.864;15.216;2024-03-23T19:26:25;1.60;;;1.50;;
1677;SDS011;6034;46.864;15.216;2024-03-23T19:28:53;1.75;;;0.80;;
1677;SDS011;6034;46.864;15.216;2024-03-23T19:31:20;1.30;;;0.80;;
1677;SDS011;6034;46.864;15.216;2024-03-23T19:33:47;1.98;;;1.08;;
1677;SDS011;6034;46.864;15.216;2024-03-23T19:36:15;1.33;;;0.75;;
1677;SDS011;6034;46.864;15.216;2024-03-23T19:38:44;1.00;;;0.55;;
1677;SDS011;6034;46.864;15.216;2024-03-23T19:41:10;1.05;;;0.60;;
1677;SDS011;6034;46.864;15.216;2024-03-23T19:43:38;4.03;;;0.70;;
1677;SDS011;6034;46.864;15.216;2024-03-23T19:46:04;1.80;;;0.90;;
1677;SDS011;6034;46.864;15.216;2024-03-23T19:48:32;1.75;;;0.82;;
1677;SDS011;6034;46.864;15.216;2024-03-23T19:50:58;1.30;;;0.80;;
1677;SDS011;6034;46.864;15.216;2024-03-23T19:53:28;1.40;;;0.65;;
1677;SDS011;6034;46.864;15.216;2024-03-23T19:55:54;1.90;;;0.82;;
1677;SDS011;6034;46.864;15.216;2024-03-23T19:58:22;1.77;;;0.82;;
1677;SDS011;6034;46.864;15.216;2024-03-23T20:00:49;1.52;;;0.73;;
1677;SDS011;6034;46.864;15.216;2024-03-23T20:03:16;2.22;;;0.70;;
1677;SDS011;6034;46.864;15.216;2024-03-23T20:05:43;1.42;;;0.50;;
1677;SDS011;6034;46.864;15.216;2024-03-23T20:08:10;2.45;;;0.60;;
1677;SDS011;6034;46.864;15.216;2024-03-23T20:10:45;4.70;;;0.85;;
1677;SDS011;6034;46.864;15.216;2024-03-23T20:13:13;1.00;;;0.50;;
1677;SDS011;6034;46.864;15.216;2024-03-23T20:15:39;1.63;;;0.50;;
1677;SDS011;6034;46.864;15.216;2024-03-23T20:18:08;1.08;;;0.47;;
1677;SDS011;6034;46.864;15.216;2024-03-23T20:20:35;1.15;;;0.60;;
1677;SDS011;6034;46.864;15.216;2024-03-23T20:23:03;1.10;;;0.40;;
1677;SDS011;6034;46.864;15.216;2024-03-23T20:25:29;2.70;;;0.70;;
1677;SDS011;6034;46.864;15.216;2024-03-23T20:28:00;1.08;;;0.50;;
1677;SDS011;6034;46.864;15.216;2024-03-23T20:30:28;3.03;;;0.60;;
1677;SDS011;6034;46.864;15.216;2024-03-23T20:32:55;1.95;;;0.50;;
1677;SDS011;6034;46.864;15.216;2024-03-23T20:35:22;1.10;;;0.52;;
1677;SDS011;6034;46.864;15.216;2024-03-23T20:37:49;1.50;;;0.68;;
1677;SDS011;6034;46.864;15.216;2024-03-23T20:40:16;2.10;;;1.05;;
1677;SDS011;6034;46.864;15.216;2024-03-23T20:42:43;1.55;;;0.60;;
1677;SDS011;6034;46.864;15.216;2024-03-23T20:45:11;1.00;;;0.50;;
1677;SDS011;6034;46.864;15.216;2024-03-23T20:47:39;1.35;;;0.57;;
1677;SDS011;6034;46.864;15.216;2024-03-23T20:50:06;0.95;;;0.45;;
1677;SDS011;6034;46.864;15.216;2024-03-23T20:52:34;1.30;;;0.70;;
1677;SDS011;6034;46.864;15.216;2024-03-23T20:55:01;1.60;;;0.50;;
1677;SDS011;6034;46.864;15.216;2024-03-23T20:57:29;1.60;;;0.95;;
1677;SDS011;6034;46.864;15.216;2024-03-23T20:59:55;1.20;;;0.65;;
1677;SDS011;6034;46.864;15.216;2024-03-23T21:02:24;1.23;;;0.57;;
1677;SDS011;6034;46.864;15.216;2024-03-23T21:04:50;1.00;;;0.40;;
1677;SDS011;6034;46.864;15.216;2024-03-23T21:07:18;1.73;;;0.50;;
1677;SDS011;6034;46.864;15.216;2024-03-23T21:09:44;1.00;;;0.47;;
1677;SDS011;6034;46.864;15.216;2024-03-23T21:12:12;1.30;;;0.40;;
1677;SDS011;6034;46.864;15.216;2024-03-23T21:14:38;1.65;;;0.73;;
1677;SDS011;6034;46.864;15.216;2024-03-23T21:17:05;1.20;;;0.60;;
1677;SDS011;6034;46.864;15.216;2024-03-23T21:19:34;1.15;;;0.60;;
1677;SDS011;6034;46.864;15.216;2024-03-23T21:22:01;1.10;;;0.50;;
1677;SDS011;6034;46.864;15.216;2024-03-23T21:24:28;1.10;;;0.50;;
1677;SDS011;6034;46.864;15.216;2024-03-23T21:26:56;1.80;;;0.40;;
1677;SDS011;6034;46.864;15.216;2024-03-23T21:29:22;1.40;;;0.60;;
1677;SDS011;6034;46.864;15.216;2024-03-23T21:31:50;1.30;;;0.85;;
1677;SDS011;6034;46.864;15.216;2024-03-23T21:34:16;1.27;;;0.40;;
1677;SDS011;6034;46.864;15.216;2024-03-23T21:36:45;1.30;;;0.60;;
1677;SDS011;6034;46.864;15.216;2024-03-23T21:39:11;1.30;;;0.60;;
1677;SDS011;6034;46.864;15.216;2024-03-23T21:41:39;1.00;;;0.40;;
1677;SDS011;6034;46.864;15.216;2024-03-23T21:44:08;1.30;;;0.50;;